createdAt,value
2022-09-12T00:01:04.578Z,85.15
2022-09-12T00:03:32.690Z,85.14
2022-09-12T00:06:00.590Z,85.09
2022-09-12T00:08:28.557Z,85.79
2022-09-12T00:10:56.445Z,87.70
2022-09-12T00:13:24.496Z,85.55
2022-09-12T00:15:52.354Z,86.35
2022-09-12T00:18:21.648Z,86.14
2022-09-12T00:20:49.573Z,85.00
2022-09-12T00:23:17.449Z,85.47
2022-09-12T00:25:47.775Z,85.50
2022-09-12T00:28:19.052Z,85.82
2022-09-12T00:30:49.365Z,85.51
2022-09-12T00:33:19.096Z,85.69
2022-09-12T00:35:52.324Z,85.87
2022-09-12T00:38:21.337Z,86.31
2022-09-12T00:40:50.292Z,86.43
2022-09-12T00:43:37.385Z,87.08
2022-09-12T00:46:12.079Z,88.04
2022-09-12T00:48:45.132Z,87.24
2022-09-12T00:51:15.248Z,88.13
2022-09-12T00:53:45.496Z,87.43
2022-09-12T00:56:16.733Z,87.66
2022-09-12T00:58:49.715Z,87.07
2022-09-12T01:01:17.988Z,87.58
2022-09-12T01:03:46.244Z,86.49
2022-09-12T01:06:22.438Z,87.15
2022-09-12T01:08:52.054Z,86.57
2022-09-12T01:11:21.926Z,85.81
2022-09-12T01:13:51.711Z,87.62
2022-09-12T01:16:20.080Z,87.35
2022-09-12T01:19:03.170Z,86.51
2022-09-12T01:21:43.133Z,86.39
2022-09-12T01:24:38.853Z,85.50
2022-09-12T01:27:34.479Z,85.79
2022-09-12T01:30:23.484Z,86.05
2022-09-12T01:33:03.991Z,86.22
2022-09-12T01:35:38.260Z,86.28
2022-09-12T01:38:12.787Z,87.16
2022-09-12T01:40:49.068Z,88.47
2022-09-12T01:43:26.726Z,88.68
2022-09-12T01:46:02.767Z,87.37
2022-09-12T01:48:35.806Z,87.12
2022-09-12T01:51:12.424Z,86.18
2022-09-12T01:53:45.275Z,86.91
2022-09-12T01:56:20.184Z,87.07
2022-09-12T01:58:52.374Z,87.15
2022-09-12T02:01:27.015Z,88.51
2022-09-12T02:04:03.847Z,88.78
2022-09-12T02:06:36.291Z,88.96
2022-09-12T02:09:09.893Z,88.91
2022-09-12T02:11:42.886Z,88.35
2022-09-12T02:14:16.739Z,88.21
2022-09-12T02:16:49.491Z,87.85
2022-09-12T02:19:21.327Z,88.12
2022-09-12T02:21:52.974Z,87.23
2022-09-12T02:24:23.137Z,87.69
2022-09-12T02:26:55.780Z,87.58
2022-09-12T02:29:23.712Z,87.69
2022-09-12T02:31:58.942Z,88.05
2022-09-12T02:34:39.877Z,88.04
2022-09-12T02:37:15.555Z,87.83
2022-09-12T02:39:45.463Z,88.01
2022-09-12T02:42:14.631Z,87.74
2022-09-12T02:44:43.528Z,88.02
2022-09-12T02:47:18.428Z,87.83
2022-09-12T02:49:46.633Z,87.59
2022-09-12T02:52:14.594Z,87.67
2022-09-12T02:54:44.164Z,87.71
2022-09-12T02:57:22.361Z,87.52
2022-09-12T02:59:54.466Z,87.30
2022-09-12T03:02:31.386Z,87.14
2022-09-12T03:05:13.043Z,87.56
2022-09-12T03:08:00.159Z,88.21
2022-09-12T03:10:35.977Z,87.77
2022-09-12T03:13:16.621Z,87.58
2022-09-12T03:15:55.308Z,87.50
2022-09-12T03:18:43.365Z,87.27
2022-09-12T03:21:19.189Z,86.86
2022-09-12T03:24:06.688Z,85.97
2022-09-12T03:26:42.569Z,87.05
2022-09-12T03:29:12.936Z,87.07
2022-09-12T03:31:50.220Z,87.15
2022-09-12T03:34:19.895Z,86.91
2022-09-12T03:36:48.540Z,88.89
2022-09-12T03:39:16.727Z,87.34
2022-09-12T03:41:44.699Z,87.04
2022-09-12T03:44:12.693Z,88.22
2022-09-12T03:46:40.594Z,86.91
2022-09-12T03:49:08.511Z,87.42
2022-09-12T03:51:37.905Z,88.34
2022-09-12T03:54:06.277Z,88.52
2022-09-12T03:56:34.494Z,89.31
2022-09-12T03:59:02.634Z,89.46
2022-09-12T04:01:30.674Z,87.86
2022-09-12T04:03:58.683Z,87.57
2022-09-12T04:06:26.699Z,86.88
2022-09-12T04:08:56.487Z,87.47
2022-09-12T04:11:24.771Z,88.76
2022-09-12T04:13:52.866Z,88.43
2022-09-12T04:16:21.131Z,87.91
2022-09-12T04:18:49.134Z,87.09
2022-09-12T04:21:19.409Z,87.42
2022-09-12T04:23:47.346Z,88.70
2022-09-12T04:26:18.400Z,88.32
2022-09-12T04:28:47.351Z,88.14
2022-09-12T04:31:17.805Z,89.67
2022-09-12T04:33:46.761Z,89.13
2022-09-12T04:36:16.819Z,90.28
2022-09-12T04:38:46.380Z,89.29
2022-09-12T04:41:17.873Z,90.22
2022-09-12T04:43:47.430Z,89.32
2022-09-12T04:46:19.787Z,89.05
2022-09-12T04:48:51.357Z,89.08
2022-09-12T04:51:25.944Z,88.44
2022-09-12T04:53:55.782Z,88.52
2022-09-12T04:56:25.893Z,88.37
2022-09-12T04:58:53.914Z,88.22
2022-09-12T05:01:23.741Z,88.32
2022-09-12T05:03:52.322Z,88.43
2022-09-12T05:06:22.686Z,88.17
2022-09-12T05:08:51.233Z,88.58
2022-09-12T05:11:24.715Z,89.37
2022-09-12T05:13:56.285Z,88.95
2022-09-12T05:16:25.862Z,88.80
2022-09-12T05:18:53.861Z,88.54
2022-09-12T05:21:23.715Z,89.02
2022-09-12T05:23:52.992Z,88.37
2022-09-12T05:26:22.903Z,90.02
2022-09-12T05:28:52.576Z,89.48
2022-09-12T05:31:24.163Z,89.17
2022-09-12T05:33:53.765Z,88.21
2022-09-12T05:36:23.934Z,88.04
2022-09-12T05:38:52.141Z,86.50
2022-09-12T05:41:24.960Z,84.75
2022-09-12T05:43:54.254Z,85.66
2022-09-12T05:46:26.281Z,86.00
2022-09-12T05:48:56.685Z,85.95
2022-09-12T05:51:27.230Z,85.62
2022-09-12T05:53:56.676Z,84.94
2022-09-12T05:56:27.305Z,84.79
2022-09-12T05:58:57.045Z,84.45
2022-09-12T06:01:28.092Z,84.86
2022-09-12T06:03:57.839Z,83.96
2022-09-12T06:06:27.677Z,81.85
2022-09-12T06:08:59.408Z,82.84
2022-09-12T06:11:29.365Z,82.91
2022-09-12T06:13:58.489Z,82.80
2022-09-12T06:16:29.801Z,82.25
2022-09-12T06:19:00.651Z,82.47
2022-09-12T06:21:30.715Z,80.69
2022-09-12T06:23:59.734Z,78.24
2022-09-12T06:26:29.580Z,78.21
2022-09-12T06:29:00.360Z,76.68
2022-09-12T06:31:31.651Z,75.35
2022-09-12T06:34:01.895Z,76.61
2022-09-12T06:36:32.607Z,74.97
2022-09-12T06:39:03.330Z,74.86
2022-09-12T06:41:32.522Z,76.34
2022-09-12T06:44:01.935Z,76.69
2022-09-12T06:46:32.124Z,76.29
2022-09-12T06:49:01.634Z,71.85
2022-09-12T06:51:29.949Z,69.84
2022-09-12T06:53:58.972Z,72.65
2022-09-12T06:56:29.637Z,73.48
2022-09-12T06:58:59.358Z,72.95
2022-09-12T07:01:29.275Z,65.51
2022-09-12T07:04:00.338Z,67.50
2022-09-12T07:06:31.842Z,69.45
2022-09-12T07:09:01.127Z,64.77
2022-09-12T07:11:31.771Z,53.65
2022-09-12T07:14:01.303Z,49.41
2022-09-12T07:16:30.321Z,54.67
2022-09-12T07:19:01.896Z,60.24
2022-09-12T07:21:30.884Z,62.25
2022-09-12T07:23:59.189Z,63.83
2022-09-12T07:26:28.237Z,63.50
2022-09-12T07:29:12.898Z,59.21
2022-09-12T07:31:45.932Z,54.17
2022-09-12T07:34:22.735Z,51.04
2022-09-12T07:36:50.732Z,55.71
2022-09-12T07:39:18.915Z,56.58
2022-09-12T07:41:47.056Z,56.11
2022-09-12T07:44:23.905Z,52.89
2022-09-12T07:46:55.034Z,50.92
2022-09-12T07:49:27.461Z,55.29
2022-09-12T07:51:55.469Z,59.28
2022-09-12T07:54:23.926Z,60.72
2022-09-12T07:56:51.895Z,62.37
2022-09-12T07:59:41.547Z,62.63
2022-09-12T08:02:16.757Z,62.97
2022-09-12T08:04:48.011Z,63.08
2022-09-12T08:07:18.269Z,63.10
2022-09-12T08:09:46.433Z,61.88
2022-09-12T08:12:14.887Z,61.57
2022-09-12T08:14:43.003Z,60.72
2022-09-12T08:17:11.109Z,54.72
2022-09-12T08:19:39.438Z,48.60
2022-09-12T08:22:09.810Z,44.10
2022-09-12T08:24:39.167Z,44.53
2022-09-12T08:27:09.311Z,50.51
2022-09-12T08:29:37.352Z,54.49
2022-09-12T08:32:05.373Z,56.37
2022-09-12T08:34:33.632Z,55.95
2022-09-12T08:37:01.806Z,57.10
2022-09-12T08:39:31.305Z,56.09
2022-09-12T08:42:03.125Z,55.37
2022-09-12T08:44:50.660Z,54.92
2022-09-12T08:47:28.308Z,54.89
2022-09-12T08:50:07.639Z,55.77
2022-09-12T08:52:43.656Z,54.92
2022-09-12T08:55:28.571Z,55.81
2022-09-12T08:57:56.681Z,54.90
2022-09-12T09:00:26.659Z,55.06
2022-09-12T09:03:11.793Z,54.87
2022-09-12T09:05:47.193Z,54.95
2022-09-12T09:08:45.906Z,54.68
2022-09-12T09:11:28.004Z,53.00
2022-09-12T09:14:28.638Z,52.00
2022-09-12T09:16:58.713Z,51.54
2022-09-12T09:19:31.684Z,52.20
2022-09-12T09:22:02.150Z,51.81
2022-09-12T09:24:37.999Z,51.87
2022-09-12T09:27:36.946Z,50.49
2022-09-12T09:30:03.423Z,50.29
2022-09-12T09:32:36.485Z,50.19
2022-09-12T09:35:16.547Z,50.32
2022-09-12T09:38:01.618Z,49.80
2022-09-12T09:40:39.282Z,49.93
2022-09-12T09:43:18.423Z,49.63
2022-09-12T09:45:47.985Z,50.88
2022-09-12T09:48:19.403Z,50.10
2022-09-12T09:50:50.134Z,48.59
2022-09-12T09:53:30.596Z,48.00
2022-09-12T09:56:03.374Z,47.63
2022-09-12T09:58:37.156Z,46.69
2022-09-12T10:01:07.224Z,48.20
2022-09-12T10:03:39.033Z,48.00
2022-09-12T10:06:25.370Z,47.25
2022-09-12T10:09:06.361Z,46.12
2022-09-12T10:11:34.697Z,46.12
2022-09-12T10:14:04.693Z,45.11
2022-09-12T10:16:52.367Z,46.32
2022-09-12T10:19:24.731Z,46.22
2022-09-12T10:21:55.604Z,45.93
2022-09-12T10:24:27.139Z,45.67
2022-09-12T10:26:58.079Z,45.75
2022-09-12T10:29:31.434Z,46.81
2022-09-12T10:32:02.297Z,45.97
2022-09-12T10:34:35.941Z,44.83
2022-09-12T10:37:07.793Z,45.14
2022-09-12T10:39:38.561Z,44.83
2022-09-12T10:42:07.247Z,45.84
2022-09-12T10:44:36.591Z,44.62
2022-09-12T10:47:23.186Z,43.80
2022-09-12T10:49:51.221Z,42.95
2022-09-12T10:52:24.176Z,44.04
2022-09-12T10:54:52.224Z,43.10
2022-09-12T10:57:50.318Z,42.75
2022-09-12T11:00:27.579Z,42.76
2022-09-12T11:03:16.357Z,42.30
2022-09-12T11:05:54.380Z,41.39
2022-09-12T11:08:42.032Z,41.67
2022-09-12T11:11:21.612Z,41.66
2022-09-12T11:14:06.261Z,41.93
2022-09-12T11:16:43.180Z,41.96
2022-09-12T11:19:29.002Z,41.84
2022-09-12T11:22:15.683Z,41.34
2022-09-12T11:25:15.098Z,40.24
2022-09-12T11:27:49.926Z,40.11
2022-09-12T11:30:19.199Z,40.03
2022-09-12T11:33:23.396Z,39.20
2022-09-12T11:35:55.474Z,37.46
2022-09-12T11:38:40.178Z,36.77
2022-09-12T11:41:12.598Z,38.07
2022-09-12T11:43:44.634Z,37.23
2022-09-12T11:46:20.305Z,36.44
2022-09-12T11:48:56.268Z,36.03
2022-09-12T11:51:28.647Z,36.78
2022-09-12T11:54:13.150Z,37.27
2022-09-12T11:56:46.489Z,37.68
2022-09-12T11:59:25.739Z,37.58
2022-09-12T12:01:59.584Z,37.62
2022-09-12T12:04:38.159Z,37.71
2022-09-12T12:07:08.959Z,37.56
2022-09-12T12:09:37.604Z,37.53
2022-09-12T12:12:10.139Z,37.47
2022-09-12T12:14:44.209Z,37.94
2022-09-12T12:17:17.510Z,37.83
2022-09-12T12:19:48.334Z,38.72
2022-09-12T12:22:19.258Z,38.97
2022-09-12T12:25:03.322Z,39.19
2022-09-12T12:27:50.095Z,37.93
2022-09-12T12:30:57.542Z,38.28
2022-09-12T12:34:02.199Z,38.53
2022-09-12T12:36:35.981Z,38.59
2022-09-12T12:39:46.856Z,37.62
2022-09-12T12:42:58.892Z,38.48
2022-09-12T12:46:12.991Z,39.27
2022-09-12T12:49:09.487Z,39.57
2022-09-12T12:51:44.381Z,39.16
2022-09-12T12:54:48.962Z,40.85
2022-09-12T12:57:20.795Z,41.18
2022-09-12T12:59:52.758Z,41.17
2022-09-12T13:02:25.219Z,40.11
2022-09-12T13:04:54.467Z,39.26
2022-09-12T13:07:29.799Z,40.21
2022-09-12T13:10:00.746Z,42.18
2022-09-12T13:12:31.796Z,42.03
2022-09-12T13:15:01.064Z,42.16
2022-09-12T13:17:46.802Z,41.95
2022-09-12T13:20:30.093Z,43.44
2022-09-12T13:23:00.547Z,43.20
2022-09-12T13:25:31.331Z,43.50
2022-09-12T13:28:06.189Z,43.63
2022-09-12T13:30:36.019Z,43.75
2022-09-12T13:33:19.354Z,43.19
2022-09-12T13:36:29.627Z,43.00
2022-09-12T13:39:21.522Z,42.78
2022-09-12T13:42:31.085Z,42.86
2022-09-12T13:45:03.575Z,41.80
2022-09-12T13:47:35.666Z,42.69
2022-09-12T13:50:05.083Z,41.79
2022-09-12T13:52:35.816Z,41.73
2022-09-12T13:55:09.200Z,41.34
2022-09-12T13:57:38.875Z,41.80
2022-09-12T14:00:19.367Z,41.44
2022-09-12T14:03:11.373Z,41.74
2022-09-12T14:05:40.996Z,40.59
2022-09-12T14:08:10.227Z,39.33
2022-09-12T14:10:41.591Z,37.94
2022-09-12T14:13:13.757Z,37.21
2022-09-12T14:15:46.630Z,36.22
2022-09-12T14:18:24.933Z,33.86
2022-09-12T14:20:54.071Z,33.98
2022-09-12T14:23:28.468Z,33.87
2022-09-12T14:26:00.031Z,34.63
2022-09-12T14:28:30.243Z,34.49
2022-09-12T14:31:00.695Z,32.34
2022-09-12T14:33:29.571Z,34.04
2022-09-12T14:36:16.906Z,34.47
2022-09-12T14:38:48.301Z,34.58
2022-09-12T14:41:24.898Z,35.61
2022-09-12T14:43:56.279Z,36.26
2022-09-12T14:46:28.458Z,35.76
2022-09-12T14:49:02.221Z,37.82
2022-09-12T14:51:34.654Z,37.25
2022-09-12T14:54:02.750Z,35.66
2022-09-12T14:56:43.513Z,36.45
2022-09-12T14:59:37.583Z,37.16
2022-09-12T15:02:24.326Z,36.72
2022-09-12T15:04:54.236Z,37.19
2022-09-12T15:07:32.322Z,36.13
2022-09-12T15:10:02.581Z,36.18
2022-09-12T15:12:32.077Z,37.48
2022-09-12T15:15:10.965Z,37.21
2022-09-12T15:17:38.793Z,37.19
2022-09-12T15:20:07.928Z,36.39
2022-09-12T15:22:37.189Z,37.73
2022-09-12T15:25:06.540Z,37.54
2022-09-12T15:27:36.107Z,38.03
2022-09-12T15:30:04.856Z,38.02
2022-09-12T15:32:32.868Z,37.49
2022-09-12T15:35:00.847Z,39.06
2022-09-12T15:37:28.931Z,38.96
2022-09-12T15:39:57.013Z,38.72
2022-09-12T15:42:29.300Z,38.46
2022-09-12T15:45:02.636Z,37.79
2022-09-12T15:47:31.299Z,37.79
2022-09-12T15:49:59.286Z,38.35
2022-09-12T15:52:27.281Z,39.23
2022-09-12T15:54:55.267Z,39.32
2022-09-12T15:57:23.214Z,39.38
2022-09-12T15:59:53.107Z,40.12
2022-09-12T16:02:22.609Z,41.12
2022-09-12T16:04:54.562Z,40.78
2022-09-12T16:07:22.687Z,40.66
2022-09-12T16:09:51.017Z,39.90
2022-09-12T16:12:19.023Z,40.64
2022-09-12T16:14:47.006Z,41.00
2022-09-12T16:17:15.014Z,40.94
2022-09-12T16:19:44.249Z,41.14
2022-09-12T16:22:12.250Z,41.09
2022-09-12T16:24:40.359Z,41.00
2022-09-12T16:27:08.441Z,41.28
2022-09-12T16:29:36.592Z,41.20
2022-09-12T16:32:04.756Z,41.38
2022-09-12T16:34:32.887Z,41.50
2022-09-12T16:37:02.785Z,41.89
2022-09-12T16:39:30.792Z,42.32
2022-09-12T16:41:58.885Z,42.67
2022-09-12T16:44:26.895Z,43.03
2022-09-12T16:46:55.429Z,42.96
2022-09-12T16:49:23.439Z,43.29
2022-09-12T16:51:51.342Z,43.48
2022-09-12T16:54:21.011Z,44.20
2022-09-12T16:56:49.928Z,44.96
2022-09-12T16:59:19.761Z,44.62
2022-09-12T17:01:47.898Z,45.30
2022-09-12T17:04:15.920Z,45.16
2022-09-12T17:06:44.080Z,45.48
2022-09-12T17:09:16.280Z,45.83
2022-09-12T17:11:47.787Z,46.54
2022-09-12T17:14:15.778Z,47.09
2022-09-12T17:16:51.439Z,47.86
2022-09-12T17:19:25.574Z,47.76
2022-09-12T17:21:54.013Z,48.16
2022-09-12T17:24:23.027Z,48.01
2022-09-12T17:26:53.580Z,49.69
2022-09-12T17:29:22.156Z,49.50
2022-09-12T17:31:50.253Z,50.14
2022-09-12T17:34:18.621Z,50.33
2022-09-12T17:36:48.457Z,51.09
2022-09-12T17:39:16.794Z,51.33
2022-09-12T17:41:45.943Z,52.14
2022-09-12T17:44:16.029Z,51.75
2022-09-12T17:46:44.494Z,53.32
2022-09-12T17:49:15.507Z,53.93
2022-09-12T17:51:44.571Z,52.39
2022-09-12T17:54:14.012Z,53.12
2022-09-12T17:56:42.716Z,54.06
2022-09-12T17:59:16.899Z,54.00
2022-09-12T18:02:11.167Z,53.96
2022-09-12T18:04:39.278Z,53.32
2022-09-12T18:07:08.302Z,54.74
2022-09-12T18:09:37.265Z,55.38
2022-09-12T18:12:06.397Z,56.98
2022-09-12T18:14:35.822Z,56.48
2022-09-12T18:17:04.624Z,57.15
2022-09-12T18:19:32.589Z,57.00
2022-09-12T18:22:02.544Z,57.15
2022-09-12T18:24:30.519Z,56.70
2022-09-12T18:26:59.143Z,56.68
2022-09-12T18:29:27.987Z,58.18
2022-09-12T18:31:57.447Z,58.12
2022-09-12T18:34:25.612Z,58.93
2022-09-12T18:36:54.894Z,57.65
2022-09-12T18:39:27.471Z,58.67
2022-09-12T18:41:56.396Z,59.03
2022-09-12T18:44:24.461Z,59.04
2022-09-12T18:46:52.840Z,59.68
2022-09-12T18:49:22.500Z,59.82
2022-09-12T18:51:50.834Z,59.96
2022-09-12T18:54:19.355Z,60.26
2022-09-12T18:56:47.695Z,60.57
2022-09-12T18:59:15.973Z,60.63
2022-09-12T19:01:44.785Z,61.03
2022-09-12T19:04:14.243Z,60.87
2022-09-12T19:06:45.415Z,60.62
2022-09-12T19:09:18.131Z,61.06
2022-09-12T19:11:50.114Z,61.44
2022-09-12T19:14:20.487Z,61.06
2022-09-12T19:16:48.644Z,61.21
2022-09-12T19:19:16.816Z,61.52
2022-09-12T19:21:48.045Z,61.31
2022-09-12T19:24:17.109Z,61.50
2022-09-12T19:26:45.547Z,61.87
2022-09-12T19:29:14.660Z,62.15
2022-09-12T19:31:42.820Z,62.30
2022-09-12T19:34:12.205Z,62.10
2022-09-12T19:36:45.738Z,62.78
2022-09-12T19:39:17.641Z,62.55
2022-09-12T19:41:46.345Z,62.42
2022-09-12T19:44:14.715Z,62.75
2022-09-12T19:46:42.959Z,62.17
2022-09-12T19:49:12.687Z,62.48
2022-09-12T19:51:41.079Z,62.41
2022-09-12T19:54:09.586Z,63.12
2022-09-12T19:56:39.580Z,63.14
2022-09-12T19:59:07.582Z,63.38
2022-09-12T20:01:37.132Z,63.19
2022-09-12T20:04:06.706Z,63.54
2022-09-12T20:06:34.916Z,63.74
2022-09-12T20:09:03.088Z,63.54
2022-09-12T20:11:31.454Z,63.54
2022-09-12T20:14:01.090Z,63.45
2022-09-12T20:16:30.063Z,63.51
2022-09-12T20:19:01.384Z,63.31
2022-09-12T20:21:32.910Z,63.31
2022-09-12T20:24:03.044Z,63.95
2022-09-12T20:26:31.128Z,63.71
2022-09-12T20:29:00.758Z,63.89
2022-09-12T20:31:28.900Z,64.06
2022-09-12T20:33:57.109Z,63.76
2022-09-12T20:36:25.093Z,63.94
2022-09-12T20:38:56.680Z,63.76
2022-09-12T20:41:25.822Z,64.10
2022-09-12T20:43:54.853Z,64.11
2022-09-12T20:46:25.107Z,63.97
2022-09-12T20:48:53.653Z,64.26
2022-09-12T20:51:22.798Z,64.27
2022-09-12T20:53:54.537Z,64.25
2022-09-12T20:56:23.141Z,64.18
2022-09-12T20:58:51.538Z,64.45
2022-09-12T21:01:19.610Z,64.06
2022-09-12T21:03:49.636Z,64.76
2022-09-12T21:06:18.519Z,64.64
2022-09-12T21:08:47.403Z,64.48
2022-09-12T21:11:15.755Z,64.64
2022-09-12T21:13:44.105Z,64.71
2022-09-12T21:16:14.028Z,64.93
2022-09-12T21:18:42.811Z,65.10
2022-09-12T21:21:14.175Z,65.06
2022-09-12T21:23:42.546Z,65.03
2022-09-12T21:26:10.660Z,65.25
2022-09-12T21:28:38.735Z,65.24
2022-09-12T21:31:06.959Z,65.35
2022-09-12T21:33:35.021Z,65.64
2022-09-12T21:36:04.479Z,65.63
2022-09-12T21:38:34.262Z,65.88
2022-09-12T21:41:07.465Z,65.84
2022-09-12T21:43:35.408Z,65.57
2022-09-12T21:46:04.290Z,65.62
2022-09-12T21:48:32.956Z,65.61
2022-09-12T21:51:01.675Z,65.89
2022-09-12T21:53:30.077Z,65.72
2022-09-12T21:56:03.757Z,65.92
2022-09-12T21:58:31.749Z,65.72
2022-09-12T22:01:00.958Z,65.71
2022-09-12T22:03:29.887Z,66.04
2022-09-12T22:05:58.712Z,65.82
2022-09-12T22:08:27.084Z,65.76
2022-09-12T22:10:59.487Z,65.88
2022-09-12T22:13:32.096Z,65.72
2022-09-12T22:16:03.485Z,65.82
2022-09-12T22:18:34.538Z,65.57
2022-09-12T22:21:05.023Z,65.83
2022-09-12T22:24:05.430Z,65.70
2022-09-12T22:26:41.919Z,65.42
2022-09-12T22:29:13.261Z,65.62
2022-09-12T22:31:41.672Z,65.51
2022-09-12T22:34:09.731Z,65.44
2022-09-12T22:36:39.159Z,65.24
2022-09-12T22:39:07.444Z,65.12
2022-09-12T22:41:35.436Z,64.88
2022-09-12T22:44:03.514Z,64.87
2022-09-12T22:46:33.248Z,64.99
2022-09-12T22:49:01.460Z,64.97
2022-09-12T22:51:29.396Z,64.99
2022-09-12T22:53:57.436Z,65.01
2022-09-12T22:56:25.838Z,65.15
2022-09-12T22:58:54.584Z,65.04
2022-09-12T23:01:23.748Z,65.17
2022-09-12T23:03:53.051Z,64.67
2022-09-12T23:06:21.236Z,64.78
2022-09-12T23:08:49.177Z,64.55
2022-09-12T23:11:20.878Z,64.86
2022-09-12T23:13:50.567Z,64.54
2022-09-12T23:16:20.832Z,64.17
2022-09-12T23:18:49.655Z,64.26
2022-09-12T23:21:21.718Z,64.36
2022-09-12T23:23:50.097Z,64.42
2022-09-12T23:26:20.772Z,64.46
2022-09-12T23:28:50.366Z,64.31
2022-09-12T23:31:18.708Z,64.32
2022-09-12T23:33:47.160Z,64.20
2022-09-12T23:36:15.233Z,64.24
2022-09-12T23:38:46.165Z,64.11
2022-09-12T23:41:16.020Z,64.09
2022-09-12T23:43:45.468Z,64.10
2022-09-12T23:46:14.722Z,64.22
2022-09-12T23:48:43.696Z,64.34
2022-09-12T23:51:12.468Z,64.38
2022-09-12T23:53:40.584Z,64.67
2022-09-12T23:56:09.913Z,64.71
2022-09-12T23:58:38.174Z,64.88
